Time;durP1;ratioP1;P1;durP2;ratioP2;P2;SDS_P1;SDS_P2;PMS_P1;PMS_P2;Temp;Humidity;BMP_temperature;BMP_pressure;BME280_temperature;BME280_humidity;BME280_pressure;Samples;Min_cycle;Max_cycle;Signal;HPM_P1;HPM_P2
2023/06/25 00:00:19;;;;;;;21.30;18.83;;;;;;;;;;5006525;28;20073;-83
2023/06/25 00:02:46;;;;;;;22.17;17.92;;;;;;;;;;5007724;28;20034;-82
2023/06/25 00:05:13;;;;;;;20.88;18.63;;;;;;;;;;5008973;28;20053;-82
2023/06/25 00:07:39;;;;;;;25.13;18.10;;;;;;;;;;5007600;28;20031;-82
2023/06/25 00:10:05;;;;;;;23.90;16.85;;;;;;;;;;5007181;28;20046;-82
2023/06/25 00:12:32;;;;;;;19.85;16.73;;;;;;;;;;5005432;28;20038;-81
2023/06/25 00:14:58;;;;;;;19.05;16.38;;;;;;;;;;5006163;28;20046;-81
2023/06/25 00:17:27;;;;;;;21.92;16.13;;;;;;;;;;5004590;28;20034;-82
2023/06/25 00:19:54;;;;;;;21.27;17.33;;;;;;;;;;5007999;28;20041;-81
2023/06/25 00:22:20;;;;;;;17.08;15.10;;;;;;;;;;5008188;28;20058;-82
2023/06/25 00:24:46;;;;;;;23.08;16.75;;;;;;;;;;5007410;28;20203;-83
2023/06/25 00:27:12;;;;;;;20.95;16.48;;;;;;;;;;5006649;28;20647;-83
2023/06/25 00:29:38;;;;;;;21.13;16.77;;;;;;;;;;5006690;28;20045;-82
2023/06/25 00:32:05;;;;;;;21.98;17.88;;;;;;;;;;5007984;28;20066;-82
2023/06/25 00:34:31;;;;;;;20.63;17.65;;;;;;;;;;5007566;28;20177;-82
2023/06/25 00:36:57;;;;;;;19.95;16.33;;;;;;;;;;5007015;28;20038;-82
2023/06/25 00:39:23;;;;;;;18.02;16.17;;;;;;;;;;5004083;28;20038;-81
2023/06/25 00:41:50;;;;;;;18.42;16.25;;;;;;;;;;5002914;28;20053;-84
2023/06/25 00:44:16;;;;;;;17.58;15.85;;;;;;;;;;5005599;28;20096;-82
2023/06/25 00:46:42;;;;;;;20.00;16.85;;;;;;;;;;4989798;28;20041;-82
2023/06/25 00:49:09;;;;;;;20.30;15.95;;;;;;;;;;5004485;28;20054;-81
2023/06/25 00:51:36;;;;;;;24.15;16.15;;;;;;;;;;4991117;28;20014;-82
2023/06/25 00:54:05;;;;;;;22.33;18.63;;;;;;;;;;5006529;28;20049;-81
2023/06/25 00:56:32;;;;;;;24.38;17.65;;;;;;;;;;5007482;28;20038;-82
2023/06/25 00:59:00;;;;;;;26.35;20.52;;;;;;;;;;5006554;28;20125;-82
2023/06/25 01:01:44;;;;;;;27.08;20.50;;;;;;;;;;4991992;28;20496;-83
2023/06/25 01:04:12;;;;;;;25.23;18.58;;;;;;;;;;4991170;28;20142;-80
2023/06/25 01:06:40;;;;;;;24.00;17.65;;;;;;;;;;4996044;28;20038;-79
2023/06/25 01:09:08;;;;;;;21.85;17.23;;;;;;;;;;5000391;28;20046;-82
2023/06/25 01:11:35;;;;;;;26.63;16.35;;;;;;;;;;4992670;28;20039;-80
2023/06/25 01:14:02;;;;;;;16.67;14.05;;;;;;;;;;5004361;28;20080;-82
2023/06/25 01:16:28;;;;;;;13.73;12.55;;;;;;;;;;4999863;28;20053;-81
2023/06/25 01:18:58;;;;;;;14.25;12.70;;;;;;;;;;4999772;28;20038;-82
2023/06/25 01:21:26;;;;;;;14.30;13.05;;;;;;;;;;5001986;28;20042;-81
2023/06/25 01:23:52;;;;;;;19.50;15.80;;;;;;;;;;5003409;28;20101;-82
2023/06/25 01:26:19;;;;;;;18.42;15.15;;;;;;;;;;5001076;28;20042;-82
2023/06/25 01:28:46;;;;;;;15.90;14.10;;;;;;;;;;4999889;28;20063;-81
2023/06/25 01:31:12;;;;;;;15.80;14.30;;;;;;;;;;4965631;28;20041;-82
2023/06/25 01:33:38;;;;;;;18.05;14.63;;;;;;;;;;4999067;28;20060;-81
2023/06/25 01:36:05;;;;;;;21.33;15.32;;;;;;;;;;4981830;28;20030;-81
2023/06/25 01:38:31;;;;;;;15.73;13.23;;;;;;;;;;4996511;28;20046;-82
2023/06/25 01:40:57;;;;;;;11.20;10.20;;;;;;;;;;4981751;28;20038;-82
2023/06/25 01:43:24;;;;;;;11.55;10.30;;;;;;;;;;4985028;28;20046;-81
2023/06/25 01:45:50;;;;;;;12.55;11.32;;;;;;;;;;5001583;28;20536;-82
2023/06/25 01:48:16;;;;;;;21.02;14.95;;;;;;;;;;4983557;28;20070;-81
2023/06/25 01:50:43;;;;;;;16.55;12.35;;;;;;;;;;4997470;28;20465;-80
2023/06/25 01:53:10;;;;;;;10.15;9.25;;;;;;;;;;4999822;28;20038;-81
2023/06/25 01:55:36;;;;;;;10.15;9.25;;;;;;;;;;4999626;28;20049;-82
2023/06/25 01:58:02;;;;;;;8.95;8.25;;;;;;;;;;4997956;28;20478;-82
2023/06/25 02:00:29;;;;;;;8.80;8.10;;;;;;;;;;4996912;28;20038;-81
2023/06/25 02:03:03;;;;;;;10.95;9.60;;;;;;;;;;4996202;28;20042;-82
2023/06/25 02:05:30;;;;;;;12.55;9.73;;;;;;;;;;4994117;28;20041;-81
2023/06/25 02:07:56;;;;;;;9.95;9.10;;;;;;;;;;4996083;28;20061;-83
2023/06/25 02:10:23;;;;;;;10.77;9.68;;;;;;;;;;4997376;28;20041;-82
2023/06/25 02:12:49;;;;;;;12.27;10.20;;;;;;;;;;4997445;28;20037;-82
2023/06/25 02:15:16;;;;;;;10.93;10.00;;;;;;;;;;5001114;28;20048;-82
2023/06/25 02:17:42;;;;;;;10.48;9.52;;;;;;;;;;4994485;28;20110;-81
2023/06/25 02:20:09;;;;;;;12.43;11.23;;;;;;;;;;5011505;28;20046;-81
2023/06/25 02:22:36;;;;;;;14.52;11.70;;;;;;;;;;5008470;28;20035;-83
2023/06/25 02:25:02;;;;;;;13.77;12.00;;;;;;;;;;4991109;28;20499;-81
2023/06/25 02:27:28;;;;;;;12.88;11.68;;;;;;;;;;4990484;28;20038;-79
2023/06/25 02:29:54;;;;;;;12.98;11.57;;;;;;;;;;5005762;28;20034;-82
2023/06/25 02:32:20;;;;;;;28.00;12.98;;;;;;;;;;5007022;28;20042;-82
2023/06/25 02:34:47;;;;;;;15.32;12.63;;;;;;;;;;5007652;28;20030;-82
2023/06/25 02:37:13;;;;;;;13.35;11.73;;;;;;;;;;5003919;28;20073;-82
2023/06/25 02:39:40;;;;;;;15.48;12.02;;;;;;;;;;4985486;28;20249;-82
2023/06/25 02:42:06;;;;;;;12.88;11.50;;;;;;;;;;4998680;28;20057;-81
2023/06/25 02:44:32;;;;;;;10.68;9.65;;;;;;;;;;4998542;28;20026;-80
2023/06/25 02:46:58;;;;;;;13.52;10.38;;;;;;;;;;4995820;28;20034;-81
2023/06/25 02:49:24;;;;;;;13.50;9.85;;;;;;;;;;4999424;28;20045;-82
2023/06/25 02:51:51;;;;;;;10.65;9.73;;;;;;;;;;4976571;28;20049;-80
2023/06/25 02:54:17;;;;;;;10.90;9.90;;;;;;;;;;5006099;28;20109;-81
2023/06/25 02:56:44;;;;;;;11.10;9.88;;;;;;;;;;5004518;28;20065;-81
2023/06/25 02:59:10;;;;;;;11.15;9.52;;;;;;;;;;5006017;28;20540;-81
2023/06/25 03:01:37;;;;;;;11.52;10.45;;;;;;;;;;5009281;28;20054;-83
2023/06/25 03:04:05;;;;;;;10.38;8.65;;;;;;;;;;5018752;28;20029;-81
2023/06/25 03:06:32;;;;;;;13.13;9.32;;;;;;;;;;5007575;28;20053;-81
2023/06/25 03:08:59;;;;;;;16.13;10.50;;;;;;;;;;5005273;28;20022;-83
2023/06/25 03:11:25;;;;;;;37.83;23.50;;;;;;;;;;4990399;28;20125;-82
2023/06/25 03:13:52;;;;;;;19.98;14.60;;;;;;;;;;5008165;28;20030;-82
2023/06/25 03:16:18;;;;;;;13.07;11.80;;;;;;;;;;5009294;28;20038;-81
2023/06/25 03:18:45;;;;;;;12.77;11.57;;;;;;;;;;5006112;28;20092;-82
2023/06/25 03:21:11;;;;;;;14.13;12.65;;;;;;;;;;5005914;28;20129;-80
2023/06/25 03:23:39;;;;;;;12.10;11.10;;;;;;;;;;4971484;28;20030;-81
2023/06/25 03:26:06;;;;;;;14.35;10.75;;;;;;;;;;5003944;28;20413;-81
2023/06/25 03:28:32;;;;;;;12.20;10.30;;;;;;;;;;5004670;28;20030;-82
2023/06/25 03:31:00;;;;;;;13.70;11.80;;;;;;;;;;5005214;28;20044;-82
2023/06/25 03:33:29;;;;;;;14.57;10.75;;;;;;;;;;5004370;28;20038;-81
2023/06/25 03:35:57;;;;;;;11.93;10.85;;;;;;;;;;5002552;28;20040;-82
2023/06/25 03:38:24;;;;;;;12.23;10.98;;;;;;;;;;4987480;28;20042;-80
2023/06/25 03:40:51;;;;;;;11.93;10.95;;;;;;;;;;5002129;28;20634;-81
2023/06/25 03:43:17;;;;;;;11.73;10.73;;;;;;;;;;5003518;28;20579;-81
2023/06/25 03:45:44;;;;;;;10.77;9.77;;;;;;;;;;5002539;28;20034;-82
2023/06/25 03:48:11;;;;;;;10.43;9.60;;;;;;;;;;5002541;28;20050;-81
2023/06/25 03:50:37;;;;;;;10.40;9.60;;;;;;;;;;4999239;28;20036;-80
2023/06/25 03:53:03;;;;;;;10.52;9.13;;;;;;;;;;4997545;28;20043;-80
2023/06/25 03:55:33;;;;;;;10.43;9.50;;;;;;;;;;4980705;28;20038;-82
2023/06/25 03:58:00;;;;;;;11.10;8.25;;;;;;;;;;5001003;28;20031;-83
2023/06/25 04:00:26;;;;;;;7.20;6.70;;;;;;;;;;4998926;28;20056;-82
2023/06/25 04:02:53;;;;;;;6.20;5.63;;;;;;;;;;5001232;28;20041;-83
2023/06/25 04:05:19;;;;;;;7.63;6.82;;;;;;;;;;5000193;28;20050;-82
2023/06/25 04:07:46;;;;;;;7.32;6.63;;;;;;;;;;5007012;28;20026;-83
2023/06/25 04:10:13;;;;;;;8.10;7.38;;;;;;;;;;4994221;28;20101;-83
2023/06/25 04:12:40;;;;;;;7.93;7.13;;;;;;;;;;4997441;28;20062;-81
2023/06/25 04:15:07;;;;;;;8.07;7.53;;;;;;;;;;4993970;28;20098;-81
2023/06/25 04:17:34;;;;;;;8.82;8.13;;;;;;;;;;5009111;28;20034;-83
2023/06/25 04:20:00;;;;;;;11.95;7.95;;;;;;;;;;5007373;28;20102;-83
2023/06/25 04:22:27;;;;;;;8.35;7.43;;;;;;;;;;4989629;28;20061;-81
2023/06/25 04:24:53;;;;;;;8.65;7.65;;;;;;;;;;5007101;28;20038;-82
2023/06/25 04:27:20;;;;;;;7.28;6.65;;;;;;;;;;5007435;28;20196;-83
2023/06/25 04:29:46;;;;;;;7.70;7.05;;;;;;;;;;5003989;28;20086;-81
2023/06/25 04:32:13;;;;;;;7.47;6.88;;;;;;;;;;4983946;28;20109;-81
2023/06/25 04:34:39;;;;;;;8.75;7.95;;;;;;;;;;4989597;28;20038;-82
2023/06/25 04:37:06;;;;;;;8.52;7.88;;;;;;;;;;5003443;28;20056;-82
2023/06/25 04:39:33;;;;;;;8.52;7.68;;;;;;;;;;4999795;28;20094;-82
2023/06/25 04:42:00;;;;;;;7.95;7.35;;;;;;;;;;4997215;28;20058;-81
2023/06/25 04:44:26;;;;;;;7.43;6.72;;;;;;;;;;4997164;28;20034;-82
2023/06/25 04:46:54;;;;;;;6.75;6.25;;;;;;;;;;4998423;28;20041;-82
2023/06/25 04:49:21;;;;;;;8.68;7.97;;;;;;;;;;4979592;28;20073;-82
2023/06/25 04:51:47;;;;;;;8.23;7.53;;;;;;;;;;4998190;28;20053;-80
2023/06/25 04:54:13;;;;;;;7.68;7.07;;;;;;;;;;4983765;28;20038;-80
2023/06/25 04:56:39;;;;;;;7.32;6.82;;;;;;;;;;4995172;28;20018;-82
2023/06/25 04:59:06;;;;;;;7.05;6.40;;;;;;;;;;5001438;28;20309;-81
2023/06/25 05:01:32;;;;;;;8.07;7.30;;;;;;;;;;4999463;28;20049;-81
2023/06/25 05:03:58;;;;;;;9.05;7.70;;;;;;;;;;4996824;28;20031;-82
2023/06/25 05:06:25;;;;;;;8.00;7.28;;;;;;;;;;4995681;28;20069;-82
2023/06/25 05:08:51;;;;;;;6.93;6.32;;;;;;;;;;4996560;28;20038;-81
2023/06/25 05:11:17;;;;;;;6.38;5.90;;;;;;;;;;4995397;28;20042;-82
2023/06/25 05:13:44;;;;;;;5.60;5.20;;;;;;;;;;4998248;28;20030;-81
2023/06/25 05:16:10;;;;;;;5.43;5.03;;;;;;;;;;4999523;28;20042;-80
2023/06/25 05:18:37;;;;;;;5.90;5.40;;;;;;;;;;4999401;28;20061;-81
2023/06/25 05:21:04;;;;;;;5.28;4.97;;;;;;;;;;4994487;28;20050;-82
2023/06/25 05:23:36;;;;;;;4.97;4.57;;;;;;;;;;4994426;28;20038;-82
2023/06/25 05:26:03;;;;;;;5.72;5.22;;;;;;;;;;4993555;28;20124;-82
2023/06/25 05:28:30;;;;;;;4.80;4.50;;;;;;;;;;4994048;28;20034;-83
2023/06/25 05:30:56;;;;;;;5.43;4.78;;;;;;;;;;4990573;28;20038;-80
2023/06/25 05:33:22;;;;;;;5.05;4.75;;;;;;;;;;4991588;28;20035;-80
2023/06/25 05:35:48;;;;;;;4.78;4.47;;;;;;;;;;4990057;28;20132;-80
2023/06/25 05:38:15;;;;;;;5.13;4.82;;;;;;;;;;4992128;28;20605;-81
2023/06/25 05:40:41;;;;;;;4.85;4.53;;;;;;;;;;4992170;28;20077;-80
2023/06/25 05:43:07;;;;;;;4.43;4.13;;;;;;;;;;4991940;28;20038;-81
2023/06/25 05:45:34;;;;;;;5.18;4.78;;;;;;;;;;4994632;28;20067;-81
2023/06/25 05:48:00;;;;;;;4.72;4.32;;;;;;;;;;4997016;28;20038;-81
2023/06/25 05:50:27;;;;;;;5.60;5.10;;;;;;;;;;4997312;28;20042;-81
2023/06/25 05:52:53;;;;;;;5.53;5.05;;;;;;;;;;4998547;28;20050;-80
2023/06/25 05:55:20;;;;;;;5.63;5.22;;;;;;;;;;4996377;28;20540;-79
2023/06/25 05:57:47;;;;;;;5.30;5.00;;;;;;;;;;4996479;28;20034;-79
2023/06/25 06:00:13;;;;;;;5.45;5.15;;;;;;;;;;4997595;28;20042;-80
2023/06/25 06:02:40;;;;;;;6.30;5.53;;;;;;;;;;4979952;28;20039;-80
2023/06/25 06:05:07;;;;;;;5.45;5.05;;;;;;;;;;4998054;28;20093;-79
2023/06/25 06:07:32;;;;;;;5.70;5.30;;;;;;;;;;4997437;28;20049;-80
2023/06/25 06:09:58;;;;;;;5.05;4.65;;;;;;;;;;4996985;28;20117;-81
2023/06/25 06:12:25;;;;;;;5.90;5.40;;;;;;;;;;4977266;28;20476;-79
2023/06/25 06:14:51;;;;;;;4.60;4.30;;;;;;;;;;5008829;28;20046;-82
2023/06/25 06:17:17;;;;;;;4.80;4.10;;;;;;;;;;5010554;28;20064;-83
2023/06/25 06:19:43;;;;;;;4.88;4.57;;;;;;;;;;5010650;28;20034;-83
2023/06/25 06:22:09;;;;;;;5.72;5.22;;;;;;;;;;5007931;28;20057;-83
2023/06/25 06:24:35;;;;;;;5.45;5.03;;;;;;;;;;5013139;28;20026;-84
2023/06/25 06:27:01;;;;;;;8.35;6.50;;;;;;;;;;5014832;28;20080;-83
2023/06/25 06:29:28;;;;;;;4.82;4.40;;;;;;;;;;5013373;28;20037;-83
2023/06/25 06:31:54;;;;;;;5.47;4.95;;;;;;;;;;5014791;28;20058;-83
2023/06/25 06:34:20;;;;;;;4.68;4.38;;;;;;;;;;5015525;28;20041;-84
2023/06/25 06:36:46;;;;;;;5.05;4.72;;;;;;;;;;5015826;28;20054;-84
2023/06/25 06:39:13;;;;;;;5.82;5.32;;;;;;;;;;5016105;28;20035;-85
2023/06/25 06:41:39;;;;;;;5.45;5.10;;;;;;;;;;5012409;28;20077;-84
2023/06/25 06:44:11;;;;;;;4.90;4.50;;;;;;;;;;5012393;28;20038;-85
2023/06/25 06:46:37;;;;;;;4.80;4.53;;;;;;;;;;5016058;28;20010;-84
2023/06/25 06:49:03;;;;;;;4.82;4.53;;;;;;;;;;5018270;28;20126;-84
2023/06/25 06:51:29;;;;;;;4.30;4.00;;;;;;;;;;5014714;28;20550;-82
2023/06/25 06:53:55;;;;;;;5.10;4.65;;;;;;;;;;5009297;28;20031;-83
2023/06/25 06:56:21;;;;;;;4.80;4.43;;;;;;;;;;4989725;28;20041;-84
2023/06/25 06:58:47;;;;;;;4.40;4.10;;;;;;;;;;4990208;28;20034;-82
2023/06/25 07:01:13;;;;;;;4.40;4.20;;;;;;;;;;5010378;28;20053;-84
2023/06/25 07:03:40;;;;;;;4.90;4.60;;;;;;;;;;5013167;28;20146;-84
2023/06/25 07:06:05;;;;;;;4.57;4.28;;;;;;;;;;5013207;28;20069;-83
2023/06/25 07:08:31;;;;;;;4.10;3.90;;;;;;;;;;5013172;28;20050;-81
2023/06/25 07:10:57;;;;;;;5.13;4.10;;;;;;;;;;5017618;28;20054;-84
2023/06/25 07:13:24;;;;;;;4.28;4.07;;;;;;;;;;5016825;28;20050;-84
2023/06/25 07:15:50;;;;;;;3.88;3.67;;;;;;;;;;5011716;28;20042;-81
2023/06/25 07:18:16;;;;;;;4.68;4.32;;;;;;;;;;5007053;28;20066;-84
2023/06/25 07:20:42;;;;;;;4.60;4.30;;;;;;;;;;5008646;28;20053;-84
2023/06/25 07:23:08;;;;;;;5.13;4.53;;;;;;;;;;5011281;28;20030;-84
2023/06/25 07:25:35;;;;;;;4.10;3.90;;;;;;;;;;5010590;28;20126;-85
2023/06/25 07:28:02;;;;;;;4.50;4.28;;;;;;;;;;5007420;28;20566;-84
2023/06/25 07:30:28;;;;;;;4.55;3.97;;;;;;;;;;5012196;28;20049;-85
2023/06/25 07:32:54;;;;;;;4.30;3.92;;;;;;;;;;5013458;28;20082;-85
2023/06/25 07:35:21;;;;;;;3.90;3.70;;;;;;;;;;5010173;28;20108;-84
2023/06/25 07:37:47;;;;;;;4.40;3.90;;;;;;;;;;5010837;28;20094;-83
2023/06/25 07:40:13;;;;;;;4.50;4.20;;;;;;;;;;5009354;28;20045;-84
2023/06/25 07:42:39;;;;;;;4.30;4.00;;;;;;;;;;5005512;28;20038;-83
2023/06/25 07:45:05;;;;;;;4.68;4.30;;;;;;;;;;5000771;28;20291;-82
2023/06/25 07:47:31;;;;;;;5.00;4.70;;;;;;;;;;4999785;28;20133;-82
2023/06/25 07:49:57;;;;;;;4.03;3.83;;;;;;;;;;5001208;28;20093;-84
2023/06/25 07:52:23;;;;;;;4.50;4.20;;;;;;;;;;5002260;28;20066;-84
2023/06/25 07:54:49;;;;;;;4.90;4.60;;;;;;;;;;5002658;28;20580;-83
2023/06/25 07:57:16;;;;;;;4.60;4.20;;;;;;;;;;5002773;28;20049;-83
2023/06/25 07:59:42;;;;;;;4.55;4.35;;;;;;;;;;5004679;28;20026;-83
2023/06/25 08:02:08;;;;;;;4.78;4.22;;;;;;;;;;5005218;28;20058;-84
2023/06/25 08:04:35;;;;;;;4.38;4.00;;;;;;;;;;5006047;28;20042;-83
2023/06/25 08:07:02;;;;;;;3.97;3.78;;;;;;;;;;5001697;28;20034;-84
2023/06/25 08:09:27;;;;;;;4.20;4.00;;;;;;;;;;5001771;28;20070;-83
2023/06/25 08:11:54;;;;;;;4.18;3.78;;;;;;;;;;4998885;28;20497;-83
2023/06/25 08:14:20;;;;;;;3.17;2.97;;;;;;;;;;4996362;28;20039;-82
2023/06/25 08:16:46;;;;;;;5.47;4.70;;;;;;;;;;4995197;28;20038;-84
2023/06/25 08:19:12;;;;;;;4.40;4.10;;;;;;;;;;4980377;28;20050;-82
2023/06/25 08:21:38;;;;;;;5.28;4.38;;;;;;;;;;4995554;28;20125;-83
2023/06/25 08:24:04;;;;;;;4.57;4.32;;;;;;;;;;4998245;28;20030;-82
2023/06/25 08:26:30;;;;;;;4.55;4.25;;;;;;;;;;4998833;28;20109;-83
2023/06/25 08:28:57;;;;;;;5.32;4.82;;;;;;;;;;5000611;28;20034;-83
2023/06/25 08:31:22;;;;;;;4.53;4.10;;;;;;;;;;4998263;28;20032;-83
2023/06/25 08:33:48;;;;;;;4.88;4.57;;;;;;;;;;4995154;28;20030;-83
2023/06/25 08:36:14;;;;;;;4.80;4.35;;;;;;;;;;4998452;28;20045;-81
2023/06/25 08:38:41;;;;;;;4.82;4.38;;;;;;;;;;4991714;28;20042;-82
2023/06/25 08:41:07;;;;;;;4.65;4.25;;;;;;;;;;5006766;28;20049;-85
2023/06/25 08:43:33;;;;;;;5.07;4.70;;;;;;;;;;5002783;28;20117;-83
2023/06/25 08:45:59;;;;;;;7.40;6.80;;;;;;;;;;5003503;28;20045;-84
2023/06/25 08:48:25;;;;;;;4.75;4.43;;;;;;;;;;5003218;28;20105;-84
2023/06/25 08:50:58;;;;;;;4.78;4.47;;;;;;;;;;5001695;28;20461;-84
2023/06/25 08:53:25;;;;;;;4.70;4.30;;;;;;;;;;5001787;28;20061;-84
2023/06/25 08:55:51;;;;;;;4.93;4.57;;;;;;;;;;5001689;28;20046;-83
2023/06/25 08:58:17;;;;;;;4.90;4.60;;;;;;;;;;5001185;28;20039;-84
2023/06/25 09:00:43;;;;;;;4.30;4.00;;;;;;;;;;4998252;28;20069;-84
2023/06/25 09:03:09;;;;;;;6.82;6.40;;;;;;;;;;4997265;28;20038;-84
2023/06/25 09:05:35;;;;;;;4.93;4.63;;;;;;;;;;5001690;28;20046;-84
2023/06/25 09:08:01;;;;;;;5.07;4.70;;;;;;;;;;5000721;28;20038;-83
2023/06/25 09:10:31;;;;;;;5.22;4.82;;;;;;;;;;5004515;28;20038;-83
2023/06/25 09:12:59;;;;;;;11.48;5.25;;;;;;;;;;5004771;28;20037;-84
2023/06/25 09:15:25;;;;;;;6.00;4.22;;;;;;;;;;5003374;28;20042;-84
2023/06/25 09:17:55;;;;;;;5.47;5.07;;;;;;;;;;5003045;28;20340;-83
2023/06/25 09:20:21;;;;;;;4.63;4.43;;;;;;;;;;5005253;28;20430;-85
2023/06/25 09:22:54;;;;;;;5.10;4.63;;;;;;;;;;5005640;28;20045;-83
2023/06/25 09:25:21;;;;;;;5.75;5.25;;;;;;;;;;4988103;28;20069;-83
2023/06/25 09:27:48;;;;;;;7.38;5.20;;;;;;;;;;5004315;28;20068;-84
2023/06/25 09:30:16;;;;;;;5.40;4.90;;;;;;;;;;5005204;28;20485;-84
2023/06/25 09:33:00;;;;;;;5.47;4.97;;;;;;;;;;5007036;28;20035;-84
2023/06/25 09:35:29;;;;;;;6.15;5.35;;;;;;;;;;5005850;28;20038;-85
2023/06/25 09:37:55;;;;;;;5.43;4.93;;;;;;;;;;5003407;28;20046;-83
2023/06/25 09:40:21;;;;;;;5.60;5.10;;;;;;;;;;5002346;28;20045;-83
2023/06/25 09:42:48;;;;;;;5.15;4.80;;;;;;;;;;4996439;28;20077;-83
2023/06/25 09:45:16;;;;;;;6.90;6.40;;;;;;;;;;5000613;28;20094;-84
2023/06/25 09:47:43;;;;;;;5.88;5.57;;;;;;;;;;5005800;28;20031;-85
2023/06/25 09:50:12;;;;;;;8.82;7.90;;;;;;;;;;5006392;28;20046;-84
2023/06/25 09:52:39;;;;;;;6.43;5.85;;;;;;;;;;5004237;28;20038;-84
2023/06/25 09:55:05;;;;;;;6.18;5.55;;;;;;;;;;5005367;28;20058;-84
2023/06/25 09:57:31;;;;;;;7.85;5.45;;;;;;;;;;5006435;28;20038;-82
2023/06/25 09:59:57;;;;;;;5.68;5.25;;;;;;;;;;5008692;28;20033;-84
2023/06/25 10:02:23;;;;;;;7.78;6.28;;;;;;;;;;5011790;28;20080;-84
2023/06/25 10:04:49;;;;;;;6.63;5.50;;;;;;;;;;5012621;28;20041;-84
2023/06/25 10:07:15;;;;;;;7.22;5.63;;;;;;;;;;5015688;28;20046;-83
2023/06/25 10:09:51;;;;;;;12.20;5.90;;;;;;;;;;5016731;28;20022;-85
2023/06/25 10:12:18;;;;;;;6.40;6.00;;;;;;;;;;5003574;28;20038;-88
2023/06/25 10:14:44;;;;;;;6.03;5.63;;;;;;;;;;5002981;28;20405;-81
2023/06/25 10:17:10;;;;;;;7.25;6.50;;;;;;;;;;4996478;28;20060;-79
2023/06/25 10:19:36;;;;;;;6.88;6.38;;;;;;;;;;4994278;28;20045;-77
2023/06/25 10:22:26;;;;;;;6.15;5.75;;;;;;;;;;4994257;28;20132;-76
2023/06/25 10:24:52;;;;;;;11.52;10.45;;;;;;;;;;4986810;28;20453;-78
2023/06/25 10:27:29;;;;;;;8.02;6.35;;;;;;;;;;5000699;28;20057;-79
2023/06/25 10:29:56;;;;;;;7.55;6.90;;;;;;;;;;4994428;28;20097;-78
2023/06/25 10:32:23;;;;;;;8.40;7.70;;;;;;;;;;4993633;28;20120;-78
2023/06/25 10:34:53;;;;;;;8.20;7.35;;;;;;;;;;4994064;28;20045;-78
2023/06/25 10:37:19;;;;;;;8.00;7.40;;;;;;;;;;4993613;28;20042;-78
2023/06/25 10:39:45;;;;;;;9.38;6.20;;;;;;;;;;4992748;28;20045;-78
2023/06/25 10:42:12;;;;;;;8.13;7.53;;;;;;;;;;4993849;28;20441;-76
2023/06/25 10:44:38;;;;;;;7.40;6.80;;;;;;;;;;4992541;28;20138;-77
2023/06/25 10:47:04;;;;;;;7.53;6.93;;;;;;;;;;4994139;28;20501;-80
2023/06/25 10:49:31;;;;;;;7.80;7.13;;;;;;;;;;4993047;28;20592;-77
2023/06/25 10:52:00;;;;;;;7.03;6.43;;;;;;;;;;4993108;28;20034;-78
2023/06/25 10:54:26;;;;;;;7.28;6.78;;;;;;;;;;4993024;28;20382;-79
2023/06/25 10:56:53;;;;;;;7.65;7.05;;;;;;;;;;4993505;28;20050;-77
2023/06/25 10:59:22;;;;;;;7.25;6.65;;;;;;;;;;4993204;28;20101;-79
2023/06/25 11:01:50;;;;;;;9.82;6.93;;;;;;;;;;4993455;28;20050;-78
2023/06/25 11:04:16;;;;;;;7.70;7.00;;;;;;;;;;4992951;28;20036;-78
2023/06/25 11:06:42;;;;;;;10.50;6.50;;;;;;;;;;4993418;28;20050;-78
2023/06/25 11:09:08;;;;;;;11.60;7.82;;;;;;;;;;4991087;28;20122;-79
2023/06/25 11:11:34;;;;;;;6.72;6.05;;;;;;;;;;4992326;28;20043;-78
2023/06/25 11:14:00;;;;;;;6.15;5.75;;;;;;;;;;4992074;28;20193;-79
2023/06/25 11:16:27;;;;;;;6.00;5.60;;;;;;;;;;4992516;28;20513;-80
2023/06/25 11:18:53;;;;;;;5.57;5.18;;;;;;;;;;4993177;28;20038;-80
2023/06/25 11:21:19;;;;;;;8.63;5.38;;;;;;;;;;4975454;28;20474;-79
2023/06/25 11:23:45;;;;;;;5.80;5.30;;;;;;;;;;4993725;28;20143;-80
2023/06/25 11:26:17;;;;;;;5.60;5.10;;;;;;;;;;4992956;28;20501;-79
2023/06/25 11:28:43;;;;;;;4.75;4.45;;;;;;;;;;4993317;28;20527;-80
2023/06/25 11:31:09;;;;;;;5.47;5.07;;;;;;;;;;4993406;28;20039;-81
2023/06/25 11:33:35;;;;;;;5.32;5.03;;;;;;;;;;4993402;28;20065;-80
2023/06/25 11:36:05;;;;;;;4.90;4.55;;;;;;;;;;4993243;28;20049;-80
2023/06/25 11:38:31;;;;;;;5.20;4.90;;;;;;;;;;4992665;28;20534;-78
2023/06/25 11:40:57;;;;;;;5.30;4.88;;;;;;;;;;4991258;28;20054;-79
2023/06/25 11:43:23;;;;;;;6.05;4.50;;;;;;;;;;4991309;28;20029;-79
2023/06/25 11:45:49;;;;;;;5.10;4.80;;;;;;;;;;4991550;28;20046;-80
2023/06/25 11:48:16;;;;;;;5.13;4.70;;;;;;;;;;4992576;28;20545;-79
2023/06/25 11:50:43;;;;;;;5.28;4.88;;;;;;;;;;4992847;28;20514;-80
2023/06/25 11:53:09;;;;;;;4.93;4.63;;;;;;;;;;4975787;28;20501;-79
2023/06/25 11:55:35;;;;;;;5.20;4.90;;;;;;;;;;4992362;28;20122;-79
2023/06/25 11:58:01;;;;;;;5.05;4.65;;;;;;;;;;4991229;28;20037;-80
2023/06/25 12:00:27;;;;;;;5.00;4.60;;;;;;;;;;4991423;28;20050;-79
2023/06/25 12:02:53;;;;;;;5.07;4.78;;;;;;;;;;4990327;28;20572;-79
2023/06/25 12:05:19;;;;;;;5.50;4.75;;;;;;;;;;4992133;28;20117;-79
2023/06/25 12:07:45;;;;;;;4.95;4.65;;;;;;;;;;4992570;28;20034;-79
2023/06/25 12:10:12;;;;;;;5.05;4.65;;;;;;;;;;4991106;28;20129;-78
2023/06/25 12:12:37;;;;;;;4.88;4.00;;;;;;;;;;4991021;28;20608;-79
2023/06/25 12:15:04;;;;;;;4.88;4.57;;;;;;;;;;4998408;28;20092;-80
2023/06/25 12:17:30;;;;;;;5.07;4.53;;;;;;;;;;4999137;28;20358;-80
2023/06/25 12:19:56;;;;;;;5.55;4.32;;;;;;;;;;4975378;28;20046;-80
2023/06/25 12:22:22;;;;;;;5.05;4.65;;;;;;;;;;4992012;28;20112;-80
2023/06/25 12:24:49;;;;;;;9.07;4.13;;;;;;;;;;4992774;28;20042;-79
2023/06/25 12:27:15;;;;;;;4.28;3.88;;;;;;;;;;4990700;28;20030;-79
2023/06/25 12:29:41;;;;;;;5.30;4.90;;;;;;;;;;4990252;28;20834;-80
2023/06/25 12:32:07;;;;;;;4.93;4.47;;;;;;;;;;4990574;28;20030;-81
2023/06/25 12:34:33;;;;;;;6.47;4.60;;;;;;;;;;4991347;28;20054;-79
2023/06/25 12:36:59;;;;;;;5.25;4.82;;;;;;;;;;4990772;28;20030;-80
2023/06/25 12:39:25;;;;;;;4.75;4.45;;;;;;;;;;4991765;28;20046;-79
2023/06/25 12:41:52;;;;;;;5.65;4.10;;;;;;;;;;4990233;28;20050;-79
2023/06/25 12:44:17;;;;;;;12.88;5.15;;;;;;;;;;4991830;28;20048;-80
2023/06/25 12:46:43;;;;;;;5.60;4.82;;;;;;;;;;4991418;28;20042;-80
2023/06/25 12:49:10;;;;;;;5.15;4.75;;;;;;;;;;4991562;28;20051;-80
2023/06/25 12:51:36;;;;;;;4.63;4.32;;;;;;;;;;4990871;28;20652;-80
2023/06/25 12:54:02;;;;;;;5.18;4.68;;;;;;;;;;4990870;28;20303;-80
2023/06/25 12:56:28;;;;;;;4.60;4.30;;;;;;;;;;4991744;28;20042;-80
2023/06/25 12:58:54;;;;;;;5.20;4.80;;;;;;;;;;4992053;28;20030;-80
2023/06/25 13:01:20;;;;;;;4.57;4.28;;;;;;;;;;4998588;28;20050;-80
2023/06/25 13:03:46;;;;;;;5.00;4.65;;;;;;;;;;4995182;28;20030;-79
2023/06/25 13:06:14;;;;;;;6.40;4.78;;;;;;;;;;4992701;28;20096;-79
2023/06/25 13:08:40;;;;;;;4.22;3.97;;;;;;;;;;4991091;28;20376;-80
2023/06/25 13:11:06;;;;;;;5.05;4.63;;;;;;;;;;4989888;28;20037;-80
2023/06/25 13:13:32;;;;;;;5.70;5.20;;;;;;;;;;4990723;28;20049;-78
2023/06/25 13:15:58;;;;;;;5.05;4.65;;;;;;;;;;4991079;28;20034;-80
2023/06/25 13:18:24;;;;;;;4.78;4.35;;;;;;;;;;4989541;28;20078;-79
2023/06/25 13:20:50;;;;;;;5.18;4.85;;;;;;;;;;4990624;28;20086;-80
2023/06/25 13:23:16;;;;;;;5.22;4.72;;;;;;;;;;4990973;28;20128;-77
2023/06/25 13:25:43;;;;;;;3.10;2.95;;;;;;;;;;4989371;28;20061;-79
2023/06/25 13:28:09;;;;;;;4.40;4.00;;;;;;;;;;4990878;28;20033;-79
2023/06/25 13:30:35;;;;;;;4.72;4.40;;;;;;;;;;4990635;28;20389;-80
2023/06/25 13:33:01;;;;;;;4.70;4.40;;;;;;;;;;4990286;28;20045;-78
2023/06/25 13:35:27;;;;;;;4.82;4.53;;;;;;;;;;4990562;28;20038;-79
2023/06/25 13:37:53;;;;;;;4.45;4.15;;;;;;;;;;4989549;28;20041;-79
2023/06/25 13:40:19;;;;;;;4.47;4.18;;;;;;;;;;4973573;28;20085;-79
2023/06/25 13:42:46;;;;;;;5.00;4.68;;;;;;;;;;4990415;28;20037;-79
2023/06/25 13:45:12;;;;;;;4.63;4.22;;;;;;;;;;4990728;28;20038;-78
2023/06/25 13:47:38;;;;;;;4.97;4.60;;;;;;;;;;4990439;28;20096;-80
2023/06/25 13:50:04;;;;;;;4.88;4.57;;;;;;;;;;4989890;28;20560;-79
2023/06/25 13:52:30;;;;;;;5.25;4.85;;;;;;;;;;4990583;28;20045;-79
2023/06/25 13:54:56;;;;;;;5.25;4.82;;;;;;;;;;4991513;28;20037;-79
2023/06/25 13:57:22;;;;;;;5.60;5.20;;;;;;;;;;4988743;28;20034;-79
2023/06/25 13:59:49;;;;;;;6.20;5.72;;;;;;;;;;4989797;28;20454;-80
2023/06/25 14:02:15;;;;;;;5.65;5.15;;;;;;;;;;4994398;28;20050;-79
2023/06/25 14:04:40;;;;;;;5.97;5.57;;;;;;;;;;5001438;28;20038;-79
2023/06/25 14:07:07;;;;;;;6.25;5.75;;;;;;;;;;4990431;28;20271;-79
2023/06/25 14:09:33;;;;;;;6.47;5.95;;;;;;;;;;4989462;28;20145;-78
2023/06/25 14:11:59;;;;;;;6.38;5.85;;;;;;;;;;4989057;28;20049;-79
2023/06/25 14:14:25;;;;;;;7.90;5.18;;;;;;;;;;4973478;28;20460;-80
2023/06/25 14:16:51;;;;;;;5.70;5.30;;;;;;;;;;4989109;28;20056;-78
2023/06/25 14:19:17;;;;;;;6.30;5.80;;;;;;;;;;4989974;28;20042;-78
2023/06/25 14:21:44;;;;;;;6.63;5.68;;;;;;;;;;4989940;28;20138;-79
2023/06/25 14:24:11;;;;;;;6.55;5.32;;;;;;;;;;4990514;28;20166;-78
2023/06/25 14:26:36;;;;;;;5.75;5.35;;;;;;;;;;4988615;28;20039;-79
2023/06/25 14:29:03;;;;;;;5.80;5.35;;;;;;;;;;4989871;28;20520;-80
2023/06/25 14:31:28;;;;;;;6.15;5.65;;;;;;;;;;4988565;28;20069;-79